Houn Maru — JG5489 — position and weather

sailwx.info

Track history (hours):
 
Tides and Currents Weather Stations Pressure Air Temp Water Temp Dewpoint Dewpoint Depression Visibility Wind Speed Wind Dir Waves Ship Positions

Houn Maru

Last reported at 2017-Feb-20 06:03 UTC. Time now 2017-Feb-24 06:05 UTC.
Position N 34°37' E 134°58'.

Length 91 m; draft 4.2 m.

Type: Tanker. MMSI: 431101172.

Date/timePositionNaut miles runAvg speedWind from/ knotsBaromVisibWave heightAir tempDewpointWater temp
2017-Feb-20 06:03N 34°37' E 134°58'611.7
2017-Feb-20 05:33N 34°36' E 135°05'1111.3
2017-Feb-20 04:33N 34°26' E 135°11'3 0.5
2017-Feb-19 23:33N 34°23' E 135°13'0 0.1
2017-Feb-19 22:16N 34°23' E 135°13'0 0.0
2017-Feb-19 16:16N 34°24' E 135°13'4 6.2
2017-Feb-19 15:34N 34°27' E 135°09'1111.0
2017-Feb-19 14:33N 34°36' E 135°02'4 0.1
2017-Feb-18 00:33N 34°37' E 134°57'1212.1
2017-Feb-17 23:33N 34°36' E 135°12'1211.7
2017-Feb-17 22:31N 34°35' E 135°26'0 0.0
2017-Feb-17 08:20N 34°35' E 135°27'7 8.6
2017-Feb-17 07:34N 34°33' E 135°19'1010.3
2017-Feb-17 06:33N 34°24' E 135°13'1 0.2
2017-Feb-17 01:29N 34°25' E 135°14'2 1.9
2017-Feb-17 00:28N 34°23' E 135°13'0 0.0
2017-Feb-16 23:31N 34°23' E 135°13'0 0.0
2017-Feb-16 22:28N 34°23' E 135°13'0 0.0
2017-Feb-16 19:04N 34°23' E 135°13'0 0.2
2017-Feb-16 18:31N 34°23' E 135°13'0 0.0
2017-Feb-16 17:10N 34°23' E 135°13'0 0.0
2017-Feb-16 16:10N 34°23' E 135°13'0 0.0
2017-Feb-16 15:22N 34°23' E 135°13'0 0.0
2017-Feb-16 13:11N 34°23' E 135°13'6 8.9
2017-Feb-16 12:33N 34°28' E 135°08'1211.2
2017-Feb-16 11:29N 34°37' E 134°59'5 0.2
2017-Feb-15 06:12N 34°36' E 134°53'710.2
2017-Feb-15 05:29N 34°37' E 135°02'1111.6
2017-Feb-15 04:33N 34°28' E 135°10'5 1.1
2017-Feb-15 00:08N 34°25' E 135°14'2 3.6
2017-Feb-14 23:32N 34°23' E 135°13'0 0.0
2017-Feb-14 21:30N 34°23' E 135°13'0 0.0
2017-Feb-14 20:14N 34°23' E 135°13'6 9.7
2017-Feb-14 19:33N 34°28' E 135°08'1211.5
2017-Feb-14 18:33N 34°36' E 134°57'2 0.1
2017-Feb-13 08:25N 34°37' E 134°59'8 8.8
2017-Feb-13 07:33N 34°33' E 135°07'1010.3
2017-Feb-13 06:33N 34°25' E 135°14'0 0.1
2017-Feb-13 01:33N 34°25' E 135°14'4 3.9
2017-Feb-13 00:33N 34°22' E 135°11'0 0.0
2017-Feb-12 22:33N 34°23' E 135°11'0 0.0
2017-Feb-12 20:09N 34°22' E 135°11'0 0.1
2017-Feb-12 19:33N 34°22' E 135°10'0 0.0
2017-Feb-12 18:33N 34°22' E 135°10'0 0.0
2017-Feb-12 15:33N 34°22' E 135°10'0 0.0
2017-Feb-12 14:33N 34°22' E 135°10'0 0.0
2017-Feb-12 13:33N 34°22' E 135°10'0 0.1
2017-Feb-12 12:33N 34°23' E 135°10'0 0.0
2017-Feb-12 10:27N 34°22' E 135°11'0 0.1
2017-Feb-12 09:27N 34°23' E 135°10'0 0.0
2017-Feb-12 07:27N 34°22' E 135°10'0 0.0
2017-Feb-12 05:27N 34°22' E 135°10'0 0.0
2017-Feb-12 03:09N 34°22' E 135°10'0 0.0
2017-Feb-12 02:18N 34°22' E 135°10'0 0.0
2017-Feb-11 23:15N 34°23' E 135°11'0 0.1
2017-Feb-11 22:33N 34°23' E 135°10'0 0.0
2017-Feb-11 20:15N 34°22' E 135°10'0 0.0
2017-Feb-11 19:33N 34°22' E 135°10'0 0.0
2017-Feb-11 18:33N 34°22' E 135°10'0 0.0
2017-Feb-11 17:27N 34°22' E 135°10'0 0.0
2017-Feb-11 16:27N 34°22' E 135°10'0 0.1
2017-Feb-11 15:33N 34°22' E 135°10'0 0.0
2017-Feb-11 14:33N 34°22' E 135°10'0 0.0
2017-Feb-11 13:33N 34°22' E 135°10'0 0.1
2017-Feb-11 12:26N 34°22' E 135°10'9 9.7
2017-Feb-11 11:33N 34°30' E 135°06'9 8.8
2017-Feb-11 10:33N 34°36' E 134°59'1 0.0
2017-Feb-10 08:33N 34°38' E 134°59'9 9.0
2017-Feb-10 07:33N 34°31' E 135°07'  
Track history (hours):
 
Tides and Currents Weather Stations Pressure Air Temp Water Temp Dewpoint Dewpoint Depression Visibility Wind Speed Wind Dir Waves Ship Positions

Houn Maru

Last reported at 2017-Feb-20 06:03 UTC. Time now 2017-Feb-24 06:05 UTC.
Position N 34°37' E 134°58'.

Length 91 m; draft 4.2 m.

Type: Tanker. MMSI: 431101172.

Date/timePositionNaut miles runAvg speedWind from/ knotsBaromVisibWave heightAir tempDewpointWater temp
2017-Feb-20 06:03N 34°37' E 134°58'611.7
2017-Feb-20 05:33N 34°36' E 135°05'1111.3
2017-Feb-20 04:33N 34°26' E 135°11'3 0.5
2017-Feb-19 23:33N 34°23' E 135°13'0 0.1
2017-Feb-19 22:16N 34°23' E 135°13'0 0.0
2017-Feb-19 16:16N 34°24' E 135°13'4 6.2
2017-Feb-19 15:34N 34°27' E 135°09'1111.0
2017-Feb-19 14:33N 34°36' E 135°02'4 0.1
2017-Feb-18 00:33N 34°37' E 134°57'1212.1
2017-Feb-17 23:33N 34°36' E 135°12'1211.7
2017-Feb-17 22:31N 34°35' E 135°26'0 0.0
2017-Feb-17 08:20N 34°35' E 135°27'7 8.6
2017-Feb-17 07:34N 34°33' E 135°19'1010.3
2017-Feb-17 06:33N 34°24' E 135°13'1 0.2
2017-Feb-17 01:29N 34°25' E 135°14'2 1.9
2017-Feb-17 00:28N 34°23' E 135°13'0 0.0
2017-Feb-16 23:31N 34°23' E 135°13'0 0.0
2017-Feb-16 22:28N 34°23' E 135°13'0 0.0
2017-Feb-16 19:04N 34°23' E 135°13'0 0.2
2017-Feb-16 18:31N 34°23' E 135°13'0 0.0
2017-Feb-16 17:10N 34°23' E 135°13'0 0.0
2017-Feb-16 16:10N 34°23' E 135°13'0 0.0
2017-Feb-16 15:22N 34°23' E 135°13'0 0.0
2017-Feb-16 13:11N 34°23' E 135°13'6 8.9
2017-Feb-16 12:33N 34°28' E 135°08'1211.2
2017-Feb-16 11:29N 34°37' E 134°59'5 0.2
2017-Feb-15 06:12N 34°36' E 134°53'710.2
2017-Feb-15 05:29N 34°37' E 135°02'1111.6
2017-Feb-15 04:33N 34°28' E 135°10'5 1.1
2017-Feb-15 00:08N 34°25' E 135°14'2 3.6
2017-Feb-14 23:32N 34°23' E 135°13'0 0.0
2017-Feb-14 21:30N 34°23' E 135°13'0 0.0
2017-Feb-14 20:14N 34°23' E 135°13'6 9.7
2017-Feb-14 19:33N 34°28' E 135°08'1211.5
2017-Feb-14 18:33N 34°36' E 134°57'2 0.1
2017-Feb-13 08:25N 34°37' E 134°59'8 8.8
2017-Feb-13 07:33N 34°33' E 135°07'1010.3
2017-Feb-13 06:33N 34°25' E 135°14'0 0.1
2017-Feb-13 01:33N 34°25' E 135°14'4 3.9
2017-Feb-13 00:33N 34°22' E 135°11'0 0.0
2017-Feb-12 22:33N 34°23' E 135°11'0 0.0
2017-Feb-12 20:09N 34°22' E 135°11'0 0.1
2017-Feb-12 19:33N 34°22' E 135°10'0 0.0
2017-Feb-12 18:33N 34°22' E 135°10'0 0.0
2017-Feb-12 15:33N 34°22' E 135°10'0 0.0
2017-Feb-12 14:33N 34°22' E 135°10'0 0.0
2017-Feb-12 13:33N 34°22' E 135°10'0 0.1
2017-Feb-12 12:33N 34°23' E 135°10'0 0.0
2017-Feb-12 10:27N 34°22' E 135°11'0 0.1
2017-Feb-12 09:27N 34°23' E 135°10'0 0.0
2017-Feb-12 07:27N 34°22' E 135°10'0 0.0
2017-Feb-12 05:27N 34°22' E 135°10'0 0.0
2017-Feb-12 03:09N 34°22' E 135°10'0 0.0
2017-Feb-12 02:18N 34°22' E 135°10'0 0.0
2017-Feb-11 23:15N 34°23' E 135°11'0 0.1
2017-Feb-11 22:33N 34°23' E 135°10'0 0.0
2017-Feb-11 20:15N 34°22' E 135°10'0 0.0
2017-Feb-11 19:33N 34°22' E 135°10'0 0.0
2017-Feb-11 18:33N 34°22' E 135°10'0 0.0
2017-Feb-11 17:27N 34°22' E 135°10'0 0.0
2017-Feb-11 16:27N 34°22' E 135°10'0 0.1
2017-Feb-11 15:33N 34°22' E 135°10'0 0.0
2017-Feb-11 14:33N 34°22' E 135°10'0 0.0
2017-Feb-11 13:33N 34°22' E 135°10'0 0.1
2017-Feb-11 12:26N 34°22' E 135°10'9 9.7
2017-Feb-11 11:33N 34°30' E 135°06'9 8.8
2017-Feb-11 10:33N 34°36' E 134°59'1 0.0
2017-Feb-10 08:33N 34°38' E 134°59'9 9.0
2017-Feb-10 07:33N 34°31' E 135°07'  

Dump ship's entire track history